Main page
METAR-TAF:

METAR-TAF

Airports :

Malé, Hulhule Island, Maldives

Velana International Airport

latitude: 04-12N, longitude: 073-32E, elevation: 2 m

Current weather observation

The report was made 1 hour and 21 minutes ago, at 09:00 UTC
Wind 16 kt from the West
Temperature 30°C
Humidity 79%
Pressure 1009 hPa
Visibility 10 km or more
Few clouds at a height of 1800 ft

METAR: VRMM 280900Z 27016KT 9999 FEW018 30/26 Q1009 NOSIG

Time: 15:21 (10:21 UTC)

Forecast

The report was made 5 hours and 21 minutes ago, at 05:00 UTC
Forecast valid from 28 at 06 UTC to 29 at 12 UTC
Wind 15 kt from the West/Southwest
Visibility 10 km or more
Few clouds at a height of 1800 ft
Temporary
from 28 at 07 UTC to 28 at 13 UTC
Visibility: 5000 m
Few clouds at a height of 1700 ft, Cumulonimbus.
light rain showers

TAF: VRMM 280500Z 2806/2912 25015KT 9999 FEW018 TEMPO 2807/2813 5000 -SHRA FEW017CB

Weather observations and forecasts of more than 4000 airports (METAR and TAF reports).

The available stations are represented by yellow and red dots on the map.

Hover mouse over dot to see the name of the station.

Then click to see weather observations and forecasts.

To change the map : click on the green buttons with a black cross to zoom in, on the green button with a dash to zoom out, or on the green arrows for adjacent maps.


METAR-TAF: